sensor_id;sensor_type;location;lat;lon;timestamp;P1;durP1;ratioP1;P2;durP2;ratioP2
11817;SDS011;5966;52.402;5.322;2023-11-21T00:11:01;14.27;;;9.47;;
11817;SDS011;5966;52.402;5.322;2023-11-21T00:13:49;13.77;;;8.90;;
11817;SDS011;5966;52.402;5.322;2023-11-21T00:16:21;15.30;;;9.40;;
11817;SDS011;5966;52.402;5.322;2023-11-21T00:19:38;12.53;;;9.23;;
11817;SDS011;5966;52.402;5.322;2023-11-21T00:23:05;14.27;;;9.90;;
11817;SDS011;5966;52.402;5.322;2023-11-21T00:37:12;13.57;;;9.23;;
11817;SDS011;5966;52.402;5.322;2023-11-21T00:39:43;13.50;;;9.23;;
11817;SDS011;5966;52.402;5.322;2023-11-21T00:42:56;10.93;;;8.33;;
11817;SDS011;5966;52.402;5.322;2023-11-21T00:57:20;15.47;;;8.70;;
11817;SDS011;5966;52.402;5.322;2023-11-21T01:00:10;14.00;;;8.60;;
11817;SDS011;5966;52.402;5.322;2023-11-21T01:03:08;12.30;;;8.63;;
11817;SDS011;5966;52.402;5.322;2023-11-21T01:05:57;13.07;;;8.40;;
11817;SDS011;5966;52.402;5.322;2023-11-21T01:24:39;11.27;;;7.70;;
11817;SDS011;5966;52.402;5.322;2023-11-21T01:27:12;11.37;;;8.50;;
11817;SDS011;5966;52.402;5.322;2023-11-21T01:37:40;12.27;;;7.47;;
11817;SDS011;5966;52.402;5.322;2023-11-21T03:29:40;11.67;;;6.27;;
11817;SDS011;5966;52.402;5.322;2023-11-21T03:32:09;10.57;;;6.40;;
11817;SDS011;5966;52.402;5.322;2023-11-21T03:34:52;9.33;;;6.70;;
11817;SDS011;5966;52.402;5.322;2023-11-21T03:37:50;9.03;;;6.53;;
11817;SDS011;5966;52.402;5.322;2023-11-21T03:40:22;11.17;;;6.43;;
11817;SDS011;5966;52.402;5.322;2023-11-21T03:43:19;11.80;;;6.37;;
11817;SDS011;5966;52.402;5.322;2023-11-21T03:45:54;9.77;;;6.43;;
11817;SDS011;5966;52.402;5.322;2023-11-21T03:48:27;12.80;;;7.07;;
11817;SDS011;5966;52.402;5.322;2023-11-21T03:50:58;14.50;;;7.20;;
11817;SDS011;5966;52.402;5.322;2023-11-21T03:53:29;12.17;;;6.13;;
11817;SDS011;5966;52.402;5.322;2023-11-21T03:56:02;10.53;;;6.40;;
11817;SDS011;5966;52.402;5.322;2023-11-21T03:59:47;11.63;;;6.60;;
11817;SDS011;5966;52.402;5.322;2023-11-21T04:06:28;12.80;;;5.80;;
11817;SDS011;5966;52.402;5.322;2023-11-21T04:09:44;9.10;;;5.93;;
11817;SDS011;5966;52.402;5.322;2023-11-21T04:13:13;8.13;;;5.43;;
11817;SDS011;5966;52.402;5.322;2023-11-21T04:16:04;13.20;;;6.50;;
11817;SDS011;5966;52.402;5.322;2023-11-21T04:18:41;10.83;;;6.53;;
11817;SDS011;5966;52.402;5.322;2023-11-21T04:22:02;12.87;;;6.20;;
11817;SDS011;5966;52.402;5.322;2023-11-21T04:24:35;8.93;;;5.53;;
11817;SDS011;5966;52.402;5.322;2023-11-21T04:27:04;10.10;;;6.30;;
11817;SDS011;5966;52.402;5.322;2023-11-21T04:29:34;9.07;;;5.90;;
11817;SDS011;5966;52.402;5.322;2023-11-21T04:32:03;11.53;;;5.90;;
11817;SDS011;5966;52.402;5.322;2023-11-21T04:34:35;12.07;;;6.20;;
11817;SDS011;5966;52.402;5.322;2023-11-21T04:37:09;9.57;;;5.67;;
11817;SDS011;5966;52.402;5.322;2023-11-21T04:39:40;9.53;;;5.50;;
11817;SDS011;5966;52.402;5.322;2023-11-21T04:42:11;8.50;;;5.90;;
11817;SDS011;5966;52.402;5.322;2023-11-21T04:45:00;7.53;;;5.63;;
11817;SDS011;5966;52.402;5.322;2023-11-21T04:51:59;9.50;;;5.53;;
11817;SDS011;5966;52.402;5.322;2023-11-21T04:54:31;7.27;;;5.20;;
11817;SDS011;5966;52.402;5.322;2023-11-21T04:56:59;10.00;;;5.50;;
11817;SDS011;5966;52.402;5.322;2023-11-21T04:59:27;10.03;;;5.77;;
11817;SDS011;5966;52.402;5.322;2023-11-21T05:01:55;10.20;;;5.33;;
11817;SDS011;5966;52.402;5.322;2023-11-21T05:04:23;8.27;;;5.00;;
11817;SDS011;5966;52.402;5.322;2023-11-21T05:06:52;6.70;;;4.73;;
11817;SDS011;5966;52.402;5.322;2023-11-21T05:09:20;7.23;;;4.27;;
11817;SDS011;5966;52.402;5.322;2023-11-21T05:11:50;7.73;;;4.70;;
11817;SDS011;5966;52.402;5.322;2023-11-21T05:14:19;6.93;;;3.97;;
11817;SDS011;5966;52.402;5.322;2023-11-21T05:16:47;7.40;;;4.20;;
11817;SDS011;5966;52.402;5.322;2023-11-21T05:19:17;5.83;;;3.70;;
11817;SDS011;5966;52.402;5.322;2023-11-21T05:21:45;5.93;;;4.10;;
11817;SDS011;5966;52.402;5.322;2023-11-21T05:24:14;5.07;;;3.60;;
11817;SDS011;5966;52.402;5.322;2023-11-21T05:26:42;4.30;;;3.17;;
11817;SDS011;5966;52.402;5.322;2023-11-21T05:29:11;5.20;;;3.23;;
11817;SDS011;5966;52.402;5.322;2023-11-21T05:31:39;5.90;;;3.00;;
11817;SDS011;5966;52.402;5.322;2023-11-21T05:34:08;4.33;;;2.90;;
11817;SDS011;5966;52.402;5.322;2023-11-21T05:36:36;6.13;;;2.90;;
11817;SDS011;5966;52.402;5.322;2023-11-21T05:39:04;5.63;;;2.93;;
11817;SDS011;5966;52.402;5.322;2023-11-21T05:41:32;5.47;;;2.60;;
11817;SDS011;5966;52.402;5.322;2023-11-21T05:44:00;6.50;;;2.77;;
11817;SDS011;5966;52.402;5.322;2023-11-21T05:46:30;3.43;;;2.40;;
11817;SDS011;5966;52.402;5.322;2023-11-21T05:48:59;4.97;;;2.60;;
11817;SDS011;5966;52.402;5.322;2023-11-21T05:51:27;3.43;;;2.60;;
11817;SDS011;5966;52.402;5.322;2023-11-21T05:53:55;4.50;;;2.30;;
11817;SDS011;5966;52.402;5.322;2023-11-21T05:56:23;7.07;;;2.37;;
11817;SDS011;5966;52.402;5.322;2023-11-21T05:58:51;4.97;;;2.37;;
11817;SDS011;5966;52.402;5.322;2023-11-21T06:01:20;4.27;;;2.20;;
11817;SDS011;5966;52.402;5.322;2023-11-21T06:03:49;3.73;;;2.10;;
11817;SDS011;5966;52.402;5.322;2023-11-21T06:06:18;8.00;;;2.23;;
11817;SDS011;5966;52.402;5.322;2023-11-21T06:08:48;6.20;;;2.60;;
11817;SDS011;5966;52.402;5.322;2023-11-21T06:11:16;4.03;;;2.20;;
11817;SDS011;5966;52.402;5.322;2023-11-21T06:13:45;6.47;;;1.97;;
11817;SDS011;5966;52.402;5.322;2023-11-21T06:16:14;5.93;;;2.30;;
11817;SDS011;5966;52.402;5.322;2023-11-21T06:18:43;5.60;;;2.57;;
11817;SDS011;5966;52.402;5.322;2023-11-21T06:21:13;6.00;;;2.50;;
11817;SDS011;5966;52.402;5.322;2023-11-21T06:23:43;5.23;;;2.23;;
11817;SDS011;5966;52.402;5.322;2023-11-21T06:26:11;5.37;;;2.23;;
11817;SDS011;5966;52.402;5.322;2023-11-21T06:28:39;7.00;;;2.47;;
11817;SDS011;5966;52.402;5.322;2023-11-21T06:31:07;4.80;;;2.30;;
11817;SDS011;5966;52.402;5.322;2023-11-21T06:33:37;5.63;;;2.50;;
11817;SDS011;5966;52.402;5.322;2023-11-21T06:36:05;5.10;;;1.97;;
11817;SDS011;5966;52.402;5.322;2023-11-21T06:38:36;4.07;;;2.20;;
11817;SDS011;5966;52.402;5.322;2023-11-21T06:41:04;3.77;;;2.20;;
11817;SDS011;5966;52.402;5.322;2023-11-21T06:43:33;3.23;;;2.30;;
11817;SDS011;5966;52.402;5.322;2023-11-21T06:46:02;4.20;;;2.13;;
11817;SDS011;5966;52.402;5.322;2023-11-21T06:48:31;4.40;;;2.17;;
11817;SDS011;5966;52.402;5.322;2023-11-21T06:50:59;3.33;;;2.30;;
11817;SDS011;5966;52.402;5.322;2023-11-21T06:53:27;3.80;;;2.70;;
11817;SDS011;5966;52.402;5.322;2023-11-21T06:55:57;3.80;;;2.50;;
11817;SDS011;5966;52.402;5.322;2023-11-21T06:58:25;4.47;;;2.90;;
11817;SDS011;5966;52.402;5.322;2023-11-21T07:00:53;3.60;;;2.97;;
11817;SDS011;5966;52.402;5.322;2023-11-21T07:03:22;4.30;;;2.70;;
11817;SDS011;5966;52.402;5.322;2023-11-21T07:05:50;4.80;;;3.70;;
11817;SDS011;5966;52.402;5.322;2023-11-21T07:08:18;5.30;;;3.50;;
11817;SDS011;5966;52.402;5.322;2023-11-21T07:10:47;4.70;;;4.17;;
11817;SDS011;5966;52.402;5.322;2023-11-21T07:13:17;7.37;;;4.73;;
11817;SDS011;5966;52.402;5.322;2023-11-21T07:15:45;8.63;;;4.43;;
11817;SDS011;5966;52.402;5.322;2023-11-21T07:18:13;6.53;;;5.07;;
11817;SDS011;5966;52.402;5.322;2023-11-21T07:20:41;6.87;;;5.57;;
11817;SDS011;5966;52.402;5.322;2023-11-21T07:23:10;7.73;;;5.20;;
11817;SDS011;5966;52.402;5.322;2023-11-21T07:25:38;7.03;;;5.30;;
11817;SDS011;5966;52.402;5.322;2023-11-21T07:28:07;6.43;;;5.27;;
11817;SDS011;5966;52.402;5.322;2023-11-21T07:30:37;6.47;;;4.87;;
11817;SDS011;5966;52.402;5.322;2023-11-21T07:33:05;6.47;;;5.03;;
11817;SDS011;5966;52.402;5.322;2023-11-21T07:35:33;5.90;;;4.90;;
11817;SDS011;5966;52.402;5.322;2023-11-21T07:38:02;5.97;;;4.60;;
11817;SDS011;5966;52.402;5.322;2023-11-21T07:40:30;6.97;;;4.70;;
11817;SDS011;5966;52.402;5.322;2023-11-21T07:42:58;5.97;;;4.20;;
11817;SDS011;5966;52.402;5.322;2023-11-21T07:45:26;7.20;;;4.20;;
11817;SDS011;5966;52.402;5.322;2023-11-21T07:47:56;5.30;;;3.97;;
11817;SDS011;5966;52.402;5.322;2023-11-21T07:50:25;4.30;;;3.77;;
11817;SDS011;5966;52.402;5.322;2023-11-21T07:52:54;4.03;;;3.67;;
11817;SDS011;5966;52.402;5.322;2023-11-21T07:55:22;4.93;;;4.00;;
11817;SDS011;5966;52.402;5.322;2023-11-21T07:57:51;4.60;;;3.57;;
11817;SDS011;5966;52.402;5.322;2023-11-21T08:00:19;4.13;;;3.70;;
11817;SDS011;5966;52.402;5.322;2023-11-21T08:02:48;4.47;;;4.07;;
11817;SDS011;5966;52.402;5.322;2023-11-21T08:05:18;4.17;;;3.63;;
11817;SDS011;5966;52.402;5.322;2023-11-21T08:07:57;4.20;;;3.67;;
11817;SDS011;5966;52.402;5.322;2023-11-21T08:10:25;4.97;;;3.83;;
11817;SDS011;5966;52.402;5.322;2023-11-21T08:12:53;5.47;;;3.70;;
11817;SDS011;5966;52.402;5.322;2023-11-21T08:15:21;4.67;;;4.03;;
11817;SDS011;5966;52.402;5.322;2023-11-21T08:17:50;4.30;;;3.50;;
11817;SDS011;5966;52.402;5.322;2023-11-21T08:20:19;4.27;;;3.40;;
11817;SDS011;5966;52.402;5.322;2023-11-21T08:22:49;4.73;;;3.80;;
11817;SDS011;5966;52.402;5.322;2023-11-21T08:25:18;4.27;;;3.87;;
11817;SDS011;5966;52.402;5.322;2023-11-21T08:27:47;5.93;;;3.90;;
11817;SDS011;5966;52.402;5.322;2023-11-21T08:30:15;4.33;;;3.80;;
11817;SDS011;5966;52.402;5.322;2023-11-21T08:32:45;3.87;;;3.10;;
11817;SDS011;5966;52.402;5.322;2023-11-21T08:35:14;3.37;;;3.00;;
11817;SDS011;5966;52.402;5.322;2023-11-21T08:37:44;3.87;;;2.80;;
11817;SDS011;5966;52.402;5.322;2023-11-21T08:40:13;4.13;;;3.03;;
11817;SDS011;5966;52.402;5.322;2023-11-21T08:42:44;7.23;;;3.17;;
11817;SDS011;5966;52.402;5.322;2023-11-21T08:45:13;3.30;;;2.83;;
11817;SDS011;5966;52.402;5.322;2023-11-21T08:47:44;3.27;;;2.97;;
11817;SDS011;5966;52.402;5.322;2023-11-21T08:50:12;3.70;;;3.10;;
11817;SDS011;5966;52.402;5.322;2023-11-21T08:52:41;3.20;;;2.87;;
11817;SDS011;5966;52.402;5.322;2023-11-21T08:55:15;4.07;;;2.80;;
11817;SDS011;5966;52.402;5.322;2023-11-21T08:57:44;4.73;;;3.47;;
11817;SDS011;5966;52.402;5.322;2023-11-21T09:00:13;4.87;;;3.47;;
11817;SDS011;5966;52.402;5.322;2023-11-21T09:02:44;6.43;;;3.63;;
11817;SDS011;5966;52.402;5.322;2023-11-21T09:05:13;4.20;;;3.40;;
11817;SDS011;5966;52.402;5.322;2023-11-21T09:07:42;4.57;;;3.70;;
11817;SDS011;5966;52.402;5.322;2023-11-21T09:10:12;4.30;;;3.90;;
11817;SDS011;5966;52.402;5.322;2023-11-21T09:12:42;7.50;;;4.53;;
11817;SDS011;5966;52.402;5.322;2023-11-21T09:15:13;4.70;;;3.60;;
11817;SDS011;5966;52.402;5.322;2023-11-21T09:17:41;5.57;;;3.90;;
11817;SDS011;5966;52.402;5.322;2023-11-21T09:20:11;6.47;;;4.57;;
11817;SDS011;5966;52.402;5.322;2023-11-21T09:22:41;6.03;;;4.00;;
11817;SDS011;5966;52.402;5.322;2023-11-21T09:25:11;5.07;;;4.27;;
11817;SDS011;5966;52.402;5.322;2023-11-21T09:27:41;5.03;;;4.10;;
11817;SDS011;5966;52.402;5.322;2023-11-21T09:30:09;4.63;;;4.10;;
11817;SDS011;5966;52.402;5.322;2023-11-21T09:32:41;6.47;;;4.60;;
11817;SDS011;5966;52.402;5.322;2023-11-21T09:35:12;6.97;;;4.80;;
11817;SDS011;5966;52.402;5.322;2023-11-21T09:37:42;8.13;;;5.07;;
11817;SDS011;5966;52.402;5.322;2023-11-21T09:40:15;6.57;;;5.33;;
11817;SDS011;5966;52.402;5.322;2023-11-21T09:42:52;6.73;;;5.43;;
11817;SDS011;5966;52.402;5.322;2023-11-21T09:45:24;7.53;;;5.80;;
11817;SDS011;5966;52.402;5.322;2023-11-21T09:47:55;7.70;;;5.60;;
11817;SDS011;5966;52.402;5.322;2023-11-21T09:50:25;8.70;;;5.93;;
11817;SDS011;5966;52.402;5.322;2023-11-21T09:52:54;8.67;;;6.20;;
11817;SDS011;5966;52.402;5.322;2023-11-21T09:55:27;7.30;;;5.80;;
11817;SDS011;5966;52.402;5.322;2023-11-21T09:57:59;10.23;;;6.20;;
11817;SDS011;5966;52.402;5.322;2023-11-21T10:00:27;9.83;;;6.90;;
11817;SDS011;5966;52.402;5.322;2023-11-21T10:02:59;10.47;;;6.73;;
11817;SDS011;5966;52.402;5.322;2023-11-21T10:05:29;10.23;;;6.83;;
11817;SDS011;5966;52.402;5.322;2023-11-21T10:08:00;9.67;;;6.87;;
11817;SDS011;5966;52.402;5.322;2023-11-21T10:10:30;12.17;;;7.27;;
11817;SDS011;5966;52.402;5.322;2023-11-21T10:13:03;11.33;;;7.50;;
11817;SDS011;5966;52.402;5.322;2023-11-21T10:15:34;11.10;;;7.53;;
11817;SDS011;5966;52.402;5.322;2023-11-21T10:18:03;11.10;;;7.60;;
11817;SDS011;5966;52.402;5.322;2023-11-21T10:20:33;10.13;;;7.10;;
11817;SDS011;5966;52.402;5.322;2023-11-21T10:23:04;9.50;;;6.90;;
11817;SDS011;5966;52.402;5.322;2023-11-21T10:25:34;11.27;;;6.93;;
11817;SDS011;5966;52.402;5.322;2023-11-21T10:28:05;9.93;;;6.80;;
11817;SDS011;5966;52.402;5.322;2023-11-21T10:30:34;12.40;;;7.37;;
11817;SDS011;5966;52.402;5.322;2023-11-21T10:33:05;9.73;;;7.37;;
11817;SDS011;5966;52.402;5.322;2023-11-21T10:35:38;9.80;;;6.63;;
11817;SDS011;5966;52.402;5.322;2023-11-21T10:38:14;7.73;;;6.33;;
11817;SDS011;5966;52.402;5.322;2023-11-21T10:40:43;9.27;;;6.70;;
11817;SDS011;5966;52.402;5.322;2023-11-21T10:43:15;8.13;;;6.20;;
11817;SDS011;5966;52.402;5.322;2023-11-21T10:45:45;11.13;;;5.80;;
11817;SDS011;5966;52.402;5.322;2023-11-21T10:48:14;8.37;;;5.83;;
11817;SDS011;5966;52.402;5.322;2023-11-21T10:50:44;6.50;;;5.13;;
11817;SDS011;5966;52.402;5.322;2023-11-21T10:53:14;8.60;;;5.43;;
11817;SDS011;5966;52.402;5.322;2023-11-21T10:55:43;6.23;;;5.07;;
11817;SDS011;5966;52.402;5.322;2023-11-21T10:58:14;6.63;;;5.57;;
11817;SDS011;5966;52.402;5.322;2023-11-21T11:00:44;8.23;;;5.43;;
11817;SDS011;5966;52.402;5.322;2023-11-21T11:03:14;6.87;;;5.17;;
11817;SDS011;5966;52.402;5.322;2023-11-21T11:05:44;7.20;;;4.70;;
11817;SDS011;5966;52.402;5.322;2023-11-21T11:08:19;6.97;;;5.10;;
11817;SDS011;5966;52.402;5.322;2023-11-21T11:10:54;7.30;;;5.00;;
11817;SDS011;5966;52.402;5.322;2023-11-21T11:13:24;5.40;;;3.93;;
11817;SDS011;5966;52.402;5.322;2023-11-21T11:15:55;5.47;;;4.83;;
11817;SDS011;5966;52.402;5.322;2023-11-21T11:18:28;7.30;;;5.37;;
11817;SDS011;5966;52.402;5.322;2023-11-21T11:20:58;4.77;;;4.13;;
11817;SDS011;5966;52.402;5.322;2023-11-21T11:23:43;5.50;;;4.70;;
11817;SDS011;5966;52.402;5.322;2023-11-21T11:26:24;5.93;;;5.20;;
11817;SDS011;5966;52.402;5.322;2023-11-21T11:29:03;6.60;;;4.50;;
11817;SDS011;5966;52.402;5.322;2023-11-21T11:31:48;5.50;;;4.57;;
11817;SDS011;5966;52.402;5.322;2023-11-21T11:34:28;13.57;;;9.33;;
11817;SDS011;5966;52.402;5.322;2023-11-21T11:37:00;14.87;;;10.90;;
11817;SDS011;5966;52.402;5.322;2023-11-21T11:39:30;15.40;;;10.77;;
11817;SDS011;5966;52.402;5.322;2023-11-21T11:42:06;15.93;;;10.30;;
11817;SDS011;5966;52.402;5.322;2023-11-21T11:44:52;13.87;;;9.33;;
11817;SDS011;5966;52.402;5.322;2023-11-21T11:47:24;13.10;;;9.87;;
11817;SDS011;5966;52.402;5.322;2023-11-21T11:50:00;13.53;;;9.77;;
11817;SDS011;5966;52.402;5.322;2023-11-21T11:52:37;15.47;;;10.00;;
11817;SDS011;5966;52.402;5.322;2023-11-21T11:55:08;15.90;;;9.67;;
11817;SDS011;5966;52.402;5.322;2023-11-21T11:57:40;15.47;;;10.37;;
11817;SDS011;5966;52.402;5.322;2023-11-21T12:00:15;14.63;;;9.17;;
11817;SDS011;5966;52.402;5.322;2023-11-21T12:02:46;13.27;;;9.43;;
11817;SDS011;5966;52.402;5.322;2023-11-21T12:05:16;14.03;;;9.13;;
11817;SDS011;5966;52.402;5.322;2023-11-21T12:07:47;14.53;;;9.57;;
11817;SDS011;5966;52.402;5.322;2023-11-21T12:10:19;13.70;;;9.83;;
11817;SDS011;5966;52.402;5.322;2023-11-21T12:12:51;13.50;;;9.97;;
11817;SDS011;5966;52.402;5.322;2023-11-21T12:15:22;17.40;;;10.33;;
11817;SDS011;5966;52.402;5.322;2023-11-21T12:17:52;12.80;;;10.57;;
11817;SDS011;5966;52.402;5.322;2023-11-21T12:20:21;12.47;;;9.40;;
11817;SDS011;5966;52.402;5.322;2023-11-21T12:22:51;14.07;;;9.73;;
11817;SDS011;5966;52.402;5.322;2023-11-21T12:25:22;11.57;;;9.17;;
11817;SDS011;5966;52.402;5.322;2023-11-21T12:27:55;12.63;;;8.73;;
11817;SDS011;5966;52.402;5.322;2023-11-21T12:30:27;12.37;;;8.43;;
11817;SDS011;5966;52.402;5.322;2023-11-21T12:32:59;11.90;;;8.80;;
11817;SDS011;5966;52.402;5.322;2023-11-21T12:35:30;11.67;;;9.03;;
11817;SDS011;5966;52.402;5.322;2023-11-21T12:38:01;10.67;;;8.47;;
11817;SDS011;5966;52.402;5.322;2023-11-21T12:40:31;11.57;;;8.53;;
11817;SDS011;5966;52.402;5.322;2023-11-21T12:43:00;11.37;;;8.50;;
11817;SDS011;5966;52.402;5.322;2023-11-21T12:45:32;11.43;;;8.23;;
11817;SDS011;5966;52.402;5.322;2023-11-21T12:48:02;11.10;;;8.77;;
11817;SDS011;5966;52.402;5.322;2023-11-21T12:50:35;10.93;;;8.03;;
11817;SDS011;5966;52.402;5.322;2023-11-21T12:53:05;10.63;;;8.17;;
11817;SDS011;5966;52.402;5.322;2023-11-21T12:55:37;10.97;;;8.53;;
11817;SDS011;5966;52.402;5.322;2023-11-21T12:58:07;11.83;;;8.63;;
11817;SDS011;5966;52.402;5.322;2023-11-21T13:00:40;13.77;;;8.60;;
11817;SDS011;5966;52.402;5.322;2023-11-21T13:03:12;10.40;;;7.60;;
11817;SDS011;5966;52.402;5.322;2023-11-21T13:05:46;10.60;;;8.20;;
11817;SDS011;5966;52.402;5.322;2023-11-21T13:08:18;11.33;;;8.43;;
11817;SDS011;5966;52.402;5.322;2023-11-21T13:10:52;9.47;;;7.90;;
11817;SDS011;5966;52.402;5.322;2023-11-21T13:13:24;11.87;;;8.43;;
11817;SDS011;5966;52.402;5.322;2023-11-21T13:15:59;12.70;;;8.97;;
11817;SDS011;5966;52.402;5.322;2023-11-21T13:18:31;12.70;;;8.03;;
11817;SDS011;5966;52.402;5.322;2023-11-21T13:21:01;11.53;;;8.17;;
11817;SDS011;5966;52.402;5.322;2023-11-21T13:23:34;10.17;;;7.60;;
11817;SDS011;5966;52.402;5.322;2023-11-21T13:26:03;8.83;;;7.50;;
11817;SDS011;5966;52.402;5.322;2023-11-21T13:28:33;9.73;;;7.30;;
11817;SDS011;5966;52.402;5.322;2023-11-21T13:31:06;8.83;;;7.40;;
11817;SDS011;5966;52.402;5.322;2023-11-21T13:33:48;10.43;;;6.90;;
11817;SDS011;5966;52.402;5.322;2023-11-21T13:36:21;9.53;;;8.00;;
11817;SDS011;5966;52.402;5.322;2023-11-21T13:38:50;9.17;;;7.53;;
11817;SDS011;5966;52.402;5.322;2023-11-21T13:41:21;8.60;;;7.43;;
11817;SDS011;5966;52.402;5.322;2023-11-21T13:43:54;8.87;;;6.93;;
11817;SDS011;5966;52.402;5.322;2023-11-21T13:46:32;9.27;;;7.73;;
11817;SDS011;5966;52.402;5.322;2023-11-21T13:49:04;8.03;;;7.07;;
11817;SDS011;5966;52.402;5.322;2023-11-21T13:51:36;8.97;;;7.77;;
11817;SDS011;5966;52.402;5.322;2023-11-21T13:54:09;8.83;;;7.70;;
11817;SDS011;5966;52.402;5.322;2023-11-21T13:56:38;10.00;;;7.27;;
11817;SDS011;5966;52.402;5.322;2023-11-21T13:59:07;8.10;;;6.40;;
11817;SDS011;5966;52.402;5.322;2023-11-21T14:01:46;8.47;;;6.63;;
11817;SDS011;5966;52.402;5.322;2023-11-21T14:04:21;7.50;;;6.70;;
11817;SDS011;5966;52.402;5.322;2023-11-21T14:07:05;8.23;;;6.27;;
11817;SDS011;5966;52.402;5.322;2023-11-21T14:09:49;8.17;;;7.13;;
11817;SDS011;5966;52.402;5.322;2023-11-21T14:12:18;9.33;;;8.03;;
11817;SDS011;5966;52.402;5.322;2023-11-21T14:14:47;8.83;;;7.80;;
11817;SDS011;5966;52.402;5.322;2023-11-21T14:17:17;8.70;;;7.73;;
11817;SDS011;5966;52.402;5.322;2023-11-21T14:19:49;9.37;;;7.70;;
11817;SDS011;5966;52.402;5.322;2023-11-21T14:22:17;9.50;;;7.60;;
11817;SDS011;5966;52.402;5.322;2023-11-21T14:24:47;7.80;;;7.00;;
11817;SDS011;5966;52.402;5.322;2023-11-21T14:27:16;7.77;;;6.70;;
11817;SDS011;5966;52.402;5.322;2023-11-21T14:29:45;7.13;;;6.30;;
11817;SDS011;5966;52.402;5.322;2023-11-21T14:32:14;6.90;;;6.20;;
11817;SDS011;5966;52.402;5.322;2023-11-21T14:34:44;8.00;;;6.27;;
11817;SDS011;5966;52.402;5.322;2023-11-21T14:37:14;6.83;;;6.23;;
11817;SDS011;5966;52.402;5.322;2023-11-21T14:39:42;6.13;;;5.50;;
11817;SDS011;5966;52.402;5.322;2023-11-21T14:42:14;6.93;;;6.03;;
11817;SDS011;5966;52.402;5.322;2023-11-21T14:44:47;8.10;;;5.93;;
11817;SDS011;5966;52.402;5.322;2023-11-21T14:47:16;6.93;;;6.30;;
11817;SDS011;5966;52.402;5.322;2023-11-21T14:49:53;8.30;;;6.37;;
11817;SDS011;5966;52.402;5.322;2023-11-21T14:52:23;7.33;;;5.90;;
11817;SDS011;5966;52.402;5.322;2023-11-21T14:55:01;6.97;;;6.27;;
11817;SDS011;5966;52.402;5.322;2023-11-21T14:57:43;7.50;;;5.70;;
11817;SDS011;5966;52.402;5.322;2023-11-21T15:00:16;7.43;;;6.73;;
11817;SDS011;5966;52.402;5.322;2023-11-21T15:03:04;7.07;;;6.37;;
11817;SDS011;5966;52.402;5.322;2023-11-21T15:05:35;6.83;;;6.13;;
11817;SDS011;5966;52.402;5.322;2023-11-21T15:08:03;7.50;;;6.50;;
11817;SDS011;5966;52.402;5.322;2023-11-21T15:10:47;6.40;;;5.80;;
11817;SDS011;5966;52.402;5.322;2023-11-21T15:13:19;6.77;;;6.07;;
11817;SDS011;5966;52.402;5.322;2023-11-21T15:15:50;8.23;;;6.67;;
11817;SDS011;5966;52.402;5.322;2023-11-21T15:18:20;6.10;;;5.57;;
11817;SDS011;5966;52.402;5.322;2023-11-21T15:20:53;6.57;;;5.87;;
11817;SDS011;5966;52.402;5.322;2023-11-21T15:23:22;6.87;;;6.17;;
11817;SDS011;5966;52.402;5.322;2023-11-21T15:25:50;6.40;;;5.80;;
11817;SDS011;5966;52.402;5.322;2023-11-21T15:28:19;7.40;;;6.20;;
11817;SDS011;5966;52.402;5.322;2023-11-21T15:30:48;7.13;;;5.77;;
11817;SDS011;5966;52.402;5.322;2023-11-21T15:33:18;6.10;;;5.47;;
11817;SDS011;5966;52.402;5.322;2023-11-21T15:35:46;6.20;;;5.60;;
11817;SDS011;5966;52.402;5.322;2023-11-21T15:38:19;5.80;;;5.20;;
11817;SDS011;5966;52.402;5.322;2023-11-21T15:40:48;9.50;;;6.13;;
11817;SDS011;5966;52.402;5.322;2023-11-21T15:43:17;6.73;;;5.50;;
11817;SDS011;5966;52.402;5.322;2023-11-21T15:45:48;7.73;;;5.73;;
11817;SDS011;5966;52.402;5.322;2023-11-21T15:48:17;6.57;;;5.33;;
11817;SDS011;5966;52.402;5.322;2023-11-21T15:50:46;7.03;;;5.73;;
11817;SDS011;5966;52.402;5.322;2023-11-21T15:53:20;5.97;;;5.23;;
11817;SDS011;5966;52.402;5.322;2023-11-21T15:55:49;7.80;;;5.70;;
11817;SDS011;5966;52.402;5.322;2023-11-21T15:58:18;6.83;;;5.77;;
11817;SDS011;5966;52.402;5.322;2023-11-21T16:00:47;7.23;;;5.67;;
11817;SDS011;5966;52.402;5.322;2023-11-21T16:03:16;6.53;;;5.00;;
11817;SDS011;5966;52.402;5.322;2023-11-21T16:05:45;7.37;;;5.23;;
11817;SDS011;5966;52.402;5.322;2023-11-21T16:08:13;6.93;;;5.40;;
11817;SDS011;5966;52.402;5.322;2023-11-21T16:10:43;6.97;;;5.27;;
11817;SDS011;5966;52.402;5.322;2023-11-21T16:13:11;11.27;;;5.67;;
11817;SDS011;5966;52.402;5.322;2023-11-21T16:15:41;7.17;;;5.40;;
11817;SDS011;5966;52.402;5.322;2023-11-21T16:18:10;9.23;;;5.40;;
11817;SDS011;5966;52.402;5.322;2023-11-21T16:20:39;7.33;;;5.37;;
11817;SDS011;5966;52.402;5.322;2023-11-21T16:23:07;6.63;;;5.00;;
11817;SDS011;5966;52.402;5.322;2023-11-21T16:25:36;6.17;;;5.13;;
11817;SDS011;5966;52.402;5.322;2023-11-21T16:28:06;6.13;;;5.20;;
11817;SDS011;5966;52.402;5.322;2023-11-21T16:30:34;6.63;;;5.30;;
11817;SDS011;5966;52.402;5.322;2023-11-21T16:33:03;5.60;;;4.93;;
11817;SDS011;5966;52.402;5.322;2023-11-21T16:35:32;5.63;;;4.70;;
11817;SDS011;5966;52.402;5.322;2023-11-21T16:38:00;5.27;;;4.77;;
11817;SDS011;5966;52.402;5.322;2023-11-21T16:40:28;6.50;;;5.53;;
11817;SDS011;5966;52.402;5.322;2023-11-21T16:42:56;6.07;;;5.00;;
11817;SDS011;5966;52.402;5.322;2023-11-21T16:45:26;6.00;;;5.07;;
11817;SDS011;5966;52.402;5.322;2023-11-21T16:47:54;9.60;;;5.20;;
11817;SDS011;5966;52.402;5.322;2023-11-21T16:50:22;6.57;;;5.30;;
11817;SDS011;5966;52.402;5.322;2023-11-21T16:52:51;6.47;;;5.33;;
11817;SDS011;5966;52.402;5.322;2023-11-21T16:55:20;6.17;;;5.33;;
11817;SDS011;5966;52.402;5.322;2023-11-21T16:57:49;6.60;;;5.03;;
11817;SDS011;5966;52.402;5.322;2023-11-21T17:00:18;6.03;;;5.20;;
11817;SDS011;5966;52.402;5.322;2023-11-21T17:02:50;5.70;;;5.20;;
11817;SDS011;5966;52.402;5.322;2023-11-21T17:05:19;6.43;;;5.20;;
11817;SDS011;5966;52.402;5.322;2023-11-21T17:07:47;6.50;;;5.00;;
11817;SDS011;5966;52.402;5.322;2023-11-21T17:10:17;6.40;;;5.17;;
11817;SDS011;5966;52.402;5.322;2023-11-21T17:12:46;5.97;;;4.53;;
11817;SDS011;5966;52.402;5.322;2023-11-21T17:15:15;6.30;;;4.77;;
11817;SDS011;5966;52.402;5.322;2023-11-21T17:17:44;6.77;;;5.50;;
11817;SDS011;5966;52.402;5.322;2023-11-21T17:20:14;7.03;;;5.10;;
11817;SDS011;5966;52.402;5.322;2023-11-21T17:22:43;6.90;;;5.40;;
11817;SDS011;5966;52.402;5.322;2023-11-21T17:25:11;7.93;;;5.80;;
11817;SDS011;5966;52.402;5.322;2023-11-21T17:27:41;8.97;;;5.00;;
11817;SDS011;5966;52.402;5.322;2023-11-21T17:30:10;7.13;;;5.40;;
11817;SDS011;5966;52.402;5.322;2023-11-21T17:32:39;7.27;;;5.47;;
11817;SDS011;5966;52.402;5.322;2023-11-21T17:35:08;7.17;;;5.57;;
11817;SDS011;5966;52.402;5.322;2023-11-21T17:37:39;7.10;;;5.90;;
11817;SDS011;5966;52.402;5.322;2023-11-21T17:40:07;7.70;;;5.67;;
11817;SDS011;5966;52.402;5.322;2023-11-21T17:42:37;7.37;;;5.67;;
11817;SDS011;5966;52.402;5.322;2023-11-21T17:45:06;6.07;;;5.03;;
11817;SDS011;5966;52.402;5.322;2023-11-21T17:47:36;6.73;;;5.57;;
11817;SDS011;5966;52.402;5.322;2023-11-21T17:50:04;6.63;;;4.93;;
11817;SDS011;5966;52.402;5.322;2023-11-21T17:52:33;7.23;;;5.43;;
11817;SDS011;5966;52.402;5.322;2023-11-21T17:55:03;6.73;;;5.43;;
11817;SDS011;5966;52.402;5.322;2023-11-21T17:57:32;9.57;;;6.13;;
11817;SDS011;5966;52.402;5.322;2023-11-21T18:00:02;6.53;;;5.57;;
11817;SDS011;5966;52.402;5.322;2023-11-21T18:02:32;7.03;;;5.40;;
11817;SDS011;5966;52.402;5.322;2023-11-21T18:05:03;6.50;;;5.80;;
11817;SDS011;5966;52.402;5.322;2023-11-21T18:07:37;7.43;;;5.97;;
11817;SDS011;5966;52.402;5.322;2023-11-21T18:10:08;7.13;;;5.87;;
11817;SDS011;5966;52.402;5.322;2023-11-21T18:12:37;9.30;;;5.97;;
11817;SDS011;5966;52.402;5.322;2023-11-21T18:15:06;8.83;;;6.03;;
11817;SDS011;5966;52.402;5.322;2023-11-21T18:17:34;7.83;;;6.03;;
11817;SDS011;5966;52.402;5.322;2023-11-21T18:20:03;6.20;;;5.37;;
11817;SDS011;5966;52.402;5.322;2023-11-21T18:22:32;9.60;;;6.80;;